SBDNSBSP

Guest
Details From SBDN - Presidente Prudente
To SBSP - Sao Paulo Congonhas
Flight Number -
Tags Generated
Created
Modified
Stats Distance 278 nm / 515 km
Max Altitude 0 ft / 0 m
Waypoints 3
Social Downloads 0
Likes 0
Share VATSIM

Download

Looking for another format? Having issues loading an existing format? Contact us
Advertisement - Login to hide

Notes

Generated

Route

SBDN TPV SBSP

ID Type Via Altitude Latitude Longitude Leg Dist Tot Dist Heading (true) Name
O SBDN APT - 0 ft / 0 m -22.17367˚ -51.43475˚ - 0 nm - -
TPV NDB - 0 ft / 0 m -23.56550˚ -46.92267˚ 263 nm 263 nm 109° / 108° ITAPEVI NDB
O SBSP APT - 0 ft / 0 m -23.62070˚ -46.65829˚ 14 nm 278 nm 103° / 103° -

Altitude Profile

Advertisement - Login to hide

Weather


0- 5 10 15 20 25 30 35+ Temperature / ° C

Clouds and Precipitation
Forecast for 2017-12-14 06:00 UTC. Updated an hour ago

Ground ~20,000 ft ~40,000 ft Winds

SBDN

Details ICAO SBDN (PPB)
Name Presidente Prudente
Region Brazil
Timezone America/Sao_Paulo (UTC-2.0)
Stats Elevation 1,476 ft / 450 m (AMSL)
Location -22.175042° -51.424639°
Runways 1
Magnetic Variation 19.161° W

METAR

SBDN 140200Z 10010KT CAVOK 27/18 Q1014

Decode

TAF

TAF SBDN 132130Z 1400/1412 08008KT 9999 FEW045 TX26/1400Z TN22/1408Z RMK PDW

Decode

Departure Runways

ID Width Length Bearing (true) Bearing (mag) Surface Threshold Offset Overrun Length
12 115 ft / 35 m 6,929 ft / 2,112 m 98.36° 117.52° Asphalt 0 ft / 0 m 0 ft / 0 m
30 115 ft / 35 m 6,929 ft / 2,112 m 278.35° 297.51° Asphalt 0 ft / 0 m 0 ft / 0 m

SBSP

Details ICAO SBSP (CGH)
Name Sao Paulo Congonhas
Region Brazil
Timezone America/Sao_Paulo (UTC-2.0)
Stats Elevation 2,631 ft / 802 m (AMSL)
Location -23.626693° -46.655377°
Runways 2
Magnetic Variation 21.295° W

METAR

SBSP 140200Z AUTO 13004KT 100V170 8000 SCT007 OVC009 18/16 Q1022

Decode

TAF

TAF SBSP 132202Z 1400/1424 14008KT 9999 OVC009TN16/1409Z TX27/1417Z BECMG 1400/1402 09005KT PROB30 1406/1411 6000 OVC006 BECMG 1411/1414 10005KT SCT015 BECMG 1414/1416 17008KT PROB30 1416/1421 BKN009 BECMG 1421/1423 10004KT CAVOK RMK PHM

Decode

Destination Runways

ID Width Length Bearing (true) Bearing (mag) Surface Threshold Offset Overrun Length
17L 147 ft / 45 m 4,726 ft / 1,441 m 147.28° 168.57° Asphalt 0 ft / 0 m 220 ft / 67 m
17R 147 ft / 45 m 6,406 ft / 1,953 m 147.39° 168.68° Asphalt 413 ft / 126 m 0 ft / 0 m
35L 147 ft / 45 m 6,406 ft / 1,953 m 327.38° 348.67° Asphalt 200 ft / 61 m 0 ft / 0 m
35R 147 ft / 45 m 4,726 ft / 1,441 m 327.28° 348.57° Asphalt 0 ft / 0 m 0 ft / 0 m

Approach Navaids

Runway Type Ident Frequency Range Bearing (true) Bearing (mag) Slope Elevation
17R Localiser ISP 109.30 MHz 18 nm / 33 km 147.03° 168.32° - 2,631 ft / 802 m (AMSL)
17R Glidescope ISP 109.30 MHz 10 nm / 19 km 147.38° 168.68° 2.90° 2,631 ft / 802 m (AMSL)
35L Localiser ICO 110.10 MHz 18 nm / 33 km 328.14° 349.44° - 2,631 ft / 802 m (AMSL)

Popular Alternatives